createdAt,value
2022-09-12T00:02:28.442Z,65.60
2022-09-12T00:07:31.958Z,66.05
2022-09-12T00:12:35.373Z,66.06
2022-09-12T00:17:41.119Z,66.14
2022-09-12T00:22:44.909Z,66.51
2022-09-12T00:27:48.374Z,66.87
2022-09-12T00:32:54.852Z,66.66
2022-09-12T00:37:58.262Z,67.07
2022-09-12T00:43:01.796Z,66.93
2022-09-12T00:48:07.321Z,67.00
2022-09-12T00:53:10.855Z,67.32
2022-09-12T00:58:18.765Z,67.13
2022-09-12T01:03:25.166Z,67.30
2022-09-12T01:08:29.997Z,66.93
2022-09-12T01:13:35.124Z,67.29
2022-09-12T01:19:01.549Z,67.19
2022-09-12T01:24:23.205Z,66.88
2022-09-12T01:29:50.053Z,67.16
2022-09-12T01:35:06.991Z,67.42
2022-09-12T01:40:16.047Z,67.48
2022-09-12T01:45:25.922Z,67.73
2022-09-12T01:50:35.305Z,67.57
2022-09-12T01:55:45.268Z,67.73
2022-09-12T02:01:06.619Z,67.94
2022-09-12T02:06:18.318Z,68.13
2022-09-12T02:11:22.991Z,68.30
2022-09-12T02:16:33.196Z,68.31
2022-09-12T02:21:40.902Z,68.50
2022-09-12T02:26:49.410Z,68.89
2022-09-12T02:31:58.209Z,69.20
2022-09-12T02:37:14.229Z,69.15
2022-09-12T02:42:17.700Z,68.99
2022-09-12T02:47:28.594Z,69.13
2022-09-12T02:52:33.857Z,69.16
2022-09-12T02:57:37.250Z,69.52
2022-09-12T03:02:55.505Z,69.68
2022-09-12T03:08:14.456Z,69.90
2022-09-12T03:13:24.695Z,69.79
2022-09-12T03:18:40.648Z,69.63
2022-09-12T03:23:52.569Z,69.81
2022-09-12T03:28:57.539Z,70.03
2022-09-12T03:34:01.771Z,70.40
2022-09-12T03:39:06.561Z,70.62
2022-09-12T03:44:10.267Z,70.94
2022-09-12T03:49:13.881Z,71.26
2022-09-12T03:54:18.714Z,71.44
2022-09-12T03:59:22.132Z,71.33
2022-09-12T04:04:25.937Z,71.08
2022-09-12T04:09:30.790Z,70.93
2022-09-12T04:14:34.588Z,71.02
2022-09-12T04:19:38.385Z,71.07
2022-09-12T04:24:43.346Z,71.19
2022-09-12T04:29:46.783Z,71.09
2022-09-12T04:34:50.217Z,71.45
2022-09-12T04:39:58.017Z,71.64
2022-09-12T04:45:01.501Z,71.73
2022-09-12T04:50:08.126Z,72.12
2022-09-12T04:55:12.958Z,71.86
2022-09-12T05:00:16.744Z,71.75
2022-09-12T05:05:20.337Z,71.80
2022-09-12T05:10:25.201Z,71.86
2022-09-12T05:15:28.916Z,72.01
2022-09-12T05:20:32.354Z,71.39
2022-09-12T05:25:37.185Z,71.61
2022-09-12T05:30:40.624Z,72.10
2022-09-12T05:35:44.083Z,72.47
2022-09-12T05:40:48.861Z,72.31
2022-09-12T05:45:52.501Z,72.33
2022-09-12T05:51:01.587Z,72.26
2022-09-12T05:56:09.462Z,72.65
2022-09-12T06:01:14.823Z,72.26
2022-09-12T06:06:19.661Z,71.44
2022-09-12T06:11:28.134Z,70.35
2022-09-12T06:16:33.332Z,69.37
2022-09-12T06:21:37.950Z,68.17
2022-09-12T06:26:43.872Z,67.88
2022-09-12T06:31:47.478Z,67.25
2022-09-12T06:36:51.375Z,67.01
2022-09-12T06:41:56.243Z,66.55
2022-09-12T06:47:10.042Z,65.50
2022-09-12T06:52:13.437Z,64.67
2022-09-12T06:57:18.369Z,64.53
2022-09-12T07:02:21.845Z,63.07
2022-09-12T07:07:25.727Z,62.62
2022-09-12T07:12:30.714Z,62.00
2022-09-12T07:17:37.606Z,61.55
2022-09-12T07:22:41.498Z,60.97
2022-09-12T07:27:50.608Z,59.49
2022-09-12T07:32:54.897Z,59.53
2022-09-12T07:37:58.299Z,57.69
2022-09-12T07:43:03.093Z,57.38
2022-09-12T07:48:06.557Z,56.23
2022-09-12T07:53:10.034Z,57.94
2022-09-12T07:58:14.899Z,56.18
2022-09-12T08:03:18.892Z,56.27
2022-09-12T08:08:23.089Z,53.69
2022-09-12T08:13:28.009Z,55.99
2022-09-12T08:18:32.974Z,54.04
2022-09-12T08:23:36.445Z,52.41
2022-09-12T08:28:41.908Z,53.01
2022-09-12T08:33:45.568Z,51.21
2022-09-12T08:38:51.296Z,51.80
2022-09-12T08:44:07.080Z,49.90
2022-09-12T08:49:14.194Z,49.59
2022-09-12T08:54:23.101Z,49.80
2022-09-12T08:59:27.928Z,49.90
2022-09-12T09:04:44.017Z,50.44
2022-09-12T09:10:07.985Z,50.54
2022-09-12T09:15:41.304Z,47.82
2022-09-12T09:20:51.797Z,47.74
2022-09-12T09:25:59.833Z,46.51
2022-09-12T09:31:05.169Z,47.62
2022-09-12T09:36:22.544Z,47.29
2022-09-12T09:41:47.494Z,48.29
2022-09-12T09:46:55.872Z,49.02
2022-09-12T09:52:01.838Z,49.05
2022-09-12T09:57:05.501Z,50.13
2022-09-12T10:02:24.440Z,49.24
2022-09-12T10:07:29.187Z,50.93
2022-09-12T10:12:32.712Z,49.53
2022-09-12T10:17:46.168Z,49.92
2022-09-12T10:22:50.619Z,50.85
2022-09-12T10:27:56.579Z,48.76
2022-09-12T10:33:12.945Z,46.89
2022-09-12T10:38:22.762Z,46.74
2022-09-12T10:43:31.050Z,45.04
2022-09-12T10:48:36.310Z,45.55
2022-09-12T10:53:42.652Z,43.11
2022-09-12T10:59:04.852Z,43.34
2022-09-12T11:04:30.218Z,45.73
2022-09-12T11:09:41.569Z,44.16
2022-09-12T11:15:01.014Z,42.55
2022-09-12T11:20:32.635Z,44.21
2022-09-12T11:25:44.996Z,45.78
2022-09-12T11:31:01.157Z,46.60
2022-09-12T11:36:13.687Z,46.08
2022-09-12T11:41:24.874Z,43.84
2022-09-12T11:46:35.029Z,42.71
2022-09-12T11:51:45.522Z,41.59
2022-09-12T11:56:53.014Z,43.95
2022-09-12T12:02:00.688Z,46.38
2022-09-12T12:07:08.569Z,45.91
2022-09-12T12:12:19.549Z,46.07
2022-09-12T12:17:25.557Z,46.65
2022-09-12T12:22:31.443Z,47.10
2022-09-12T12:27:53.733Z,45.81
2022-09-12T12:33:00.747Z,46.10
2022-09-12T12:38:27.352Z,46.45
2022-09-12T12:43:32.740Z,47.47
2022-09-12T12:49:10.830Z,46.95
2022-09-12T12:54:46.866Z,47.19
2022-09-12T12:59:54.941Z,47.21
2022-09-12T13:05:01.309Z,47.59
2022-09-12T13:10:09.418Z,47.17
2022-09-12T13:15:53.035Z,47.39
2022-09-12T13:21:05.353Z,45.96
2022-09-12T13:26:14.006Z,44.38
2022-09-12T13:31:24.258Z,44.84
2022-09-12T13:36:45.991Z,44.08
2022-09-12T13:42:31.029Z,45.11
2022-09-12T13:47:39.642Z,46.14
2022-09-12T13:52:49.697Z,45.83
2022-09-12T13:57:59.901Z,44.54
2022-09-12T14:03:43.209Z,44.48
2022-09-12T14:08:48.487Z,45.06
2022-09-12T14:13:52.813Z,43.45
2022-09-12T14:18:59.833Z,43.15
2022-09-12T14:24:05.858Z,43.79
2022-09-12T14:29:10.265Z,44.04
2022-09-12T14:34:17.620Z,45.18
2022-09-12T14:39:25.816Z,46.36
2022-09-12T14:44:32.161Z,47.65
2022-09-12T14:49:38.665Z,50.03
2022-09-12T14:54:44.604Z,50.37
2022-09-12T14:59:48.053Z,50.25
2022-09-12T15:04:54.597Z,50.45
2022-09-12T15:10:00.258Z,50.57
2022-09-12T15:15:15.552Z,49.51
2022-09-12T15:20:20.530Z,50.61
2022-09-12T15:25:24.050Z,51.73
2022-09-12T15:30:28.037Z,52.26
2022-09-12T15:35:34.592Z,53.56
2022-09-12T15:40:37.983Z,54.35
2022-09-12T15:45:51.603Z,55.11
2022-09-12T15:51:01.461Z,55.27
2022-09-12T15:56:05.206Z,53.95
2022-09-12T16:01:11.281Z,54.50
2022-09-12T16:06:16.513Z,53.80
2022-09-12T16:11:22.662Z,54.55
2022-09-12T16:16:26.377Z,55.54
2022-09-12T16:21:31.982Z,55.62
2022-09-12T16:26:35.568Z,55.77
2022-09-12T16:31:40.150Z,56.66
2022-09-12T16:36:45.418Z,57.18
2022-09-12T16:41:48.800Z,57.14
2022-09-12T16:46:52.281Z,57.77
2022-09-12T16:51:57.106Z,57.57
2022-09-12T16:57:00.708Z,58.22
2022-09-12T17:02:04.502Z,64.00
2022-09-12T17:07:10.144Z,67.30
2022-09-12T17:12:13.918Z,69.09
2022-09-12T17:17:17.292Z,69.68
2022-09-12T17:22:22.117Z,69.79
2022-09-12T17:27:25.641Z,71.69
2022-09-12T17:32:29.344Z,72.80
2022-09-12T17:37:36.822Z,72.96
2022-09-12T17:42:41.001Z,72.23
2022-09-12T17:47:44.657Z,73.03
2022-09-12T17:52:49.476Z,72.32
2022-09-12T17:57:53.057Z,72.48
2022-09-12T18:02:56.496Z,73.16
2022-09-12T18:08:01.724Z,73.16
2022-09-12T18:13:05.168Z,72.50
2022-09-12T18:18:08.712Z,72.99
2022-09-12T18:23:13.684Z,72.52
2022-09-12T18:28:18.597Z,73.22
2022-09-12T18:33:24.084Z,73.87
2022-09-12T18:38:29.146Z,74.12
2022-09-12T18:43:33.018Z,73.27
2022-09-12T18:48:36.755Z,73.22
2022-09-12T18:53:42.764Z,72.95
2022-09-12T18:58:47.451Z,72.81
2022-09-12T19:03:52.265Z,74.67
2022-09-12T19:08:59.626Z,73.95
2022-09-12T19:14:05.756Z,73.54
2022-09-12T19:19:09.244Z,73.06
2022-09-12T19:24:14.911Z,72.60
2022-09-12T19:29:18.498Z,71.47
2022-09-12T19:34:22.067Z,71.37
2022-09-12T19:39:26.996Z,71.67
2022-09-12T19:44:31.888Z,71.98
2022-09-12T19:49:35.330Z,72.68
2022-09-12T19:54:40.128Z,72.72
2022-09-12T19:59:45.202Z,73.48
2022-09-12T20:04:48.668Z,74.13
2022-09-12T20:09:55.096Z,74.69
2022-09-12T20:14:58.771Z,72.98
2022-09-12T20:20:02.327Z,71.98
2022-09-12T20:25:08.955Z,71.25
2022-09-12T20:30:14.474Z,70.47
2022-09-12T20:35:18.518Z,71.18
2022-09-12T20:40:23.902Z,71.41
2022-09-12T20:45:27.337Z,71.17
2022-09-12T20:50:30.953Z,71.95
2022-09-12T20:55:35.881Z,71.83
2022-09-12T21:00:39.772Z,72.02
2022-09-12T21:05:43.793Z,72.60
2022-09-12T21:10:48.662Z,72.77
2022-09-12T21:15:59.547Z,73.00
2022-09-12T21:21:03.293Z,73.05
2022-09-12T21:26:08.432Z,73.11
2022-09-12T21:31:12.165Z,72.78
2022-09-12T21:36:15.694Z,73.05
2022-09-12T21:41:20.799Z,72.45
2022-09-12T21:46:24.180Z,72.86
2022-09-12T21:51:27.887Z,73.14
2022-09-12T21:56:32.751Z,73.43
2022-09-12T22:01:36.203Z,73.85
2022-09-12T22:06:40.217Z,73.40
2022-09-12T22:11:45.673Z,72.29
2022-09-12T22:16:49.827Z,73.51
2022-09-12T22:22:11.053Z,73.38
2022-09-12T22:27:15.890Z,74.75
2022-09-12T22:32:19.891Z,75.78
2022-09-12T22:37:23.406Z,76.58
2022-09-12T22:42:29.820Z,75.39
2022-09-12T22:47:33.255Z,74.50
2022-09-12T22:52:36.629Z,72.75
2022-09-12T22:57:41.712Z,72.24
2022-09-12T23:02:45.142Z,71.30
2022-09-12T23:07:48.887Z,70.73
2022-09-12T23:12:55.046Z,69.81
2022-09-12T23:17:58.923Z,70.04
2022-09-12T23:23:02.457Z,69.61
2022-09-12T23:28:07.874Z,69.63
2022-09-12T23:33:11.377Z,69.84
2022-09-12T23:38:15.270Z,70.45
2022-09-12T23:43:20.071Z,70.31
2022-09-12T23:48:23.550Z,70.31
2022-09-12T23:53:27.625Z,69.94
2022-09-12T23:58:32.488Z,70.48
